首页
METAR-TAF:

METAR-TAF

机场 :

布莱斯, 加利福尼亚州, 美国

纬度: 33-37-09N, 经度: 114-43-01W, 海拔: 121米

当前天气观测

该预报发布于59分钟前的01:52 UTC
风速12节,风向西南
温度 25°C
湿度 21%
气压 1006 hPa
能見度: 16.1公里
天空无云

METAR: KBLH 060152Z AUTO 23012KT 10SM CLR 25/01 A2971 RMK AO2 SLP057 T02500011

时间: 19:51 (02:51 UTC)

预报

该预报发布于3小时和24分钟前的23:27 UTC
预报有效从06日的 00点(UTC)到 06日的 24点(UTC)
风速14节,风向南转西南,有时为21节阵风
能見度: 10公里
天空无云
从 06日的 0200点(UTC)
风速13节,风向西转西南,有时为22节阵风
能見度: 10公里
天空无云
从 06日的 0500点(UTC)
风速8节,风向西南
能見度: 10公里
天空无云
从 06日的 1700点(UTC)
风速10节,风向南转西南,有时为17节阵风
能見度: 10公里
散云层高于18000英尺

TAF: KBLH 052327Z 0600/0624 21014G21KT P6SM SKC FM060200 24013G22KT P6SM SKC FM060500 22008KT P6SM SKC FM061700 20010G17KT P6SM SCT180

超过4000个机场的气象观测和天气预报(METAR&TAF报告)。

可查询的气象台以黄色和红色小点在地图上表示。

将鼠标移到小点上方,可查看气象台名称。

然后点击查看天气观测和预报。

如需切换地图:点击带黑十字的绿色按钮放大地图;点击带横线的绿色按钮缩小地图;或者点击绿色箭头查看邻近地区的地图。


METAR-TAF: